sensor_id;sensor_type;location;lat;lon;timestamp;P1;durP1;ratioP1;P2;durP2;ratioP2
15848;SDS011;8024;48.708;9.394;2023-04-03T00:00:10;2.40;;;2.20;;
15848;SDS011;8024;48.708;9.394;2023-04-03T00:02:39;2.30;;;2.20;;
15848;SDS011;8024;48.708;9.394;2023-04-03T00:05:07;2.33;;;2.20;;
15848;SDS011;8024;48.708;9.394;2023-04-03T00:07:34;1.87;;;1.77;;
15848;SDS011;8024;48.708;9.394;2023-04-03T00:10:01;2.37;;;2.27;;
15848;SDS011;8024;48.708;9.394;2023-04-03T00:12:29;2.60;;;2.40;;
15848;SDS011;8024;48.708;9.394;2023-04-03T00:14:56;4.07;;;2.23;;
15848;SDS011;8024;48.708;9.394;2023-04-03T00:17:23;3.17;;;2.97;;
15848;SDS011;8024;48.708;9.394;2023-04-03T00:19:52;2.67;;;2.20;;
15848;SDS011;8024;48.708;9.394;2023-04-03T00:22:19;2.13;;;2.00;;
15848;SDS011;8024;48.708;9.394;2023-04-03T00:24:46;2.40;;;2.30;;
15848;SDS011;8024;48.708;9.394;2023-04-03T00:27:13;3.03;;;2.80;;
15848;SDS011;8024;48.708;9.394;2023-04-03T00:29:41;2.93;;;2.77;;
15848;SDS011;8024;48.708;9.394;2023-04-03T00:32:08;2.53;;;2.33;;
15848;SDS011;8024;48.708;9.394;2023-04-03T00:34:36;2.47;;;2.30;;
15848;SDS011;8024;48.708;9.394;2023-04-03T00:37:04;2.90;;;2.60;;
15848;SDS011;8024;48.708;9.394;2023-04-03T00:39:31;2.47;;;2.27;;
15848;SDS011;8024;48.708;9.394;2023-04-03T00:41:58;2.70;;;2.50;;
15848;SDS011;8024;48.708;9.394;2023-04-03T00:47:26;2.43;;;2.33;;
15848;SDS011;8024;48.708;9.394;2023-04-03T00:49:54;3.10;;;2.90;;
15848;SDS011;8024;48.708;9.394;2023-04-03T00:52:25;3.10;;;2.37;;
15848;SDS011;8024;48.708;9.394;2023-04-03T00:54:56;3.30;;;2.37;;
15848;SDS011;8024;48.708;9.394;2023-04-03T00:57:27;2.77;;;2.57;;
15848;SDS011;8024;48.708;9.394;2023-04-03T00:59:56;2.40;;;2.23;;
15848;SDS011;8024;48.708;9.394;2023-04-03T01:02:26;3.83;;;2.67;;
15848;SDS011;8024;48.708;9.394;2023-04-03T01:04:53;2.10;;;2.00;;
15848;SDS011;8024;48.708;9.394;2023-04-03T01:07:21;2.43;;;2.23;;
15848;SDS011;8024;48.708;9.394;2023-04-03T01:09:53;3.07;;;2.83;;
15848;SDS011;8024;48.708;9.394;2023-04-03T01:12:24;2.40;;;2.30;;
15848;SDS011;8024;48.708;9.394;2023-04-03T01:14:54;2.27;;;2.17;;
15848;SDS011;8024;48.708;9.394;2023-04-03T01:17:30;2.37;;;2.13;;
15848;SDS011;8024;48.708;9.394;2023-04-03T01:23:22;2.87;;;2.67;;
15848;SDS011;8024;48.708;9.394;2023-04-03T01:25:54;2.50;;;2.23;;
15848;SDS011;8024;48.708;9.394;2023-04-03T01:28:23;3.80;;;2.30;;
15848;SDS011;8024;48.708;9.394;2023-04-03T01:30:53;3.77;;;3.57;;
15848;SDS011;8024;48.708;9.394;2023-04-03T01:33:28;2.70;;;2.50;;
15848;SDS011;8024;48.708;9.394;2023-04-03T01:35:55;2.67;;;2.47;;
15848;SDS011;8024;48.708;9.394;2023-04-03T01:38:22;3.10;;;2.57;;
15848;SDS011;8024;48.708;9.394;2023-04-03T01:40:50;2.40;;;2.30;;
15848;SDS011;8024;48.708;9.394;2023-04-03T01:43:17;2.57;;;2.37;;
15848;SDS011;8024;48.708;9.394;2023-04-03T01:45:44;2.90;;;2.20;;
15848;SDS011;8024;48.708;9.394;2023-04-03T01:48:14;2.47;;;2.27;;
15848;SDS011;8024;48.708;9.394;2023-04-03T01:50:43;2.33;;;2.23;;
15848;SDS011;8024;48.708;9.394;2023-04-03T01:53:10;2.40;;;2.20;;
15848;SDS011;8024;48.708;9.394;2023-04-03T01:55:38;2.57;;;2.47;;
15848;SDS011;8024;48.708;9.394;2023-04-03T01:58:05;2.87;;;2.57;;
15848;SDS011;8024;48.708;9.394;2023-04-03T02:00:32;2.67;;;2.47;;
15848;SDS011;8024;48.708;9.394;2023-04-03T02:03:00;2.63;;;2.43;;
15848;SDS011;8024;48.708;9.394;2023-04-03T02:05:28;4.07;;;2.87;;
15848;SDS011;8024;48.708;9.394;2023-04-03T02:07:57;2.53;;;2.40;;
15848;SDS011;8024;48.708;9.394;2023-04-03T02:10:25;2.57;;;2.37;;
15848;SDS011;8024;48.708;9.394;2023-04-03T02:12:52;2.50;;;2.40;;
15848;SDS011;8024;48.708;9.394;2023-04-03T02:15:19;2.63;;;2.43;;
15848;SDS011;8024;48.708;9.394;2023-04-03T02:17:46;2.67;;;2.47;;
15848;SDS011;8024;48.708;9.394;2023-04-03T02:20:13;2.43;;;2.23;;
15848;SDS011;8024;48.708;9.394;2023-04-03T02:22:41;2.70;;;2.50;;
15848;SDS011;8024;48.708;9.394;2023-04-03T02:25:09;2.33;;;2.17;;
15848;SDS011;8024;48.708;9.394;2023-04-03T02:27:37;2.30;;;2.20;;
15848;SDS011;8024;48.708;9.394;2023-04-03T02:30:05;1.97;;;1.87;;
15848;SDS011;8024;48.708;9.394;2023-04-03T02:32:35;2.43;;;2.33;;
15848;SDS011;8024;48.708;9.394;2023-04-03T02:35:03;2.70;;;2.50;;
15848;SDS011;8024;48.708;9.394;2023-04-03T02:37:31;2.60;;;2.40;;
15848;SDS011;8024;48.708;9.394;2023-04-03T02:39:58;2.20;;;2.10;;
15848;SDS011;8024;48.708;9.394;2023-04-03T02:42:26;3.03;;;2.43;;
15848;SDS011;8024;48.708;9.394;2023-04-03T02:44:53;2.60;;;2.50;;
15848;SDS011;8024;48.708;9.394;2023-04-03T02:47:21;2.37;;;2.10;;
15848;SDS011;8024;48.708;9.394;2023-04-03T02:49:48;2.00;;;1.90;;
15848;SDS011;8024;48.708;9.394;2023-04-03T02:52:15;2.97;;;2.67;;
15848;SDS011;8024;48.708;9.394;2023-04-03T02:54:42;2.87;;;2.67;;
15848;SDS011;8024;48.708;9.394;2023-04-03T02:57:09;2.40;;;2.20;;
15848;SDS011;8024;48.708;9.394;2023-04-03T02:59:38;2.90;;;2.23;;
15848;SDS011;8024;48.708;9.394;2023-04-03T03:02:06;2.10;;;2.00;;
15848;SDS011;8024;48.708;9.394;2023-04-03T03:04:33;2.37;;;2.17;;
15848;SDS011;8024;48.708;9.394;2023-04-03T03:07:01;1.93;;;1.83;;
15848;SDS011;8024;48.708;9.394;2023-04-03T03:09:28;2.50;;;2.30;;
15848;SDS011;8024;48.708;9.394;2023-04-03T03:11:55;2.50;;;2.30;;
15848;SDS011;8024;48.708;9.394;2023-04-03T03:14:22;4.63;;;2.40;;
15848;SDS011;8024;48.708;9.394;2023-04-03T03:16:51;1.80;;;1.70;;
15848;SDS011;8024;48.708;9.394;2023-04-03T03:19:18;2.10;;;2.00;;
15848;SDS011;8024;48.708;9.394;2023-04-03T03:21:45;2.13;;;2.03;;
15848;SDS011;8024;48.708;9.394;2023-04-03T03:24:12;2.20;;;2.00;;
15848;SDS011;8024;48.708;9.394;2023-04-03T03:26:40;1.63;;;1.53;;
15848;SDS011;8024;48.708;9.394;2023-04-03T03:29:07;2.40;;;2.20;;
15848;SDS011;8024;48.708;9.394;2023-04-03T03:31:35;2.33;;;2.23;;
15848;SDS011;8024;48.708;9.394;2023-04-03T03:34:03;2.10;;;2.00;;
15848;SDS011;8024;48.708;9.394;2023-04-03T03:36:30;2.10;;;2.00;;
15848;SDS011;8024;48.708;9.394;2023-04-03T03:38:57;2.10;;;1.90;;
15848;SDS011;8024;48.708;9.394;2023-04-03T03:41:24;2.70;;;2.50;;
15848;SDS011;8024;48.708;9.394;2023-04-03T03:43:52;3.00;;;2.10;;
15848;SDS011;8024;48.708;9.394;2023-04-03T03:46:19;2.50;;;1.97;;
15848;SDS011;8024;48.708;9.394;2023-04-03T03:48:46;2.27;;;2.10;;
15848;SDS011;8024;48.708;9.394;2023-04-03T03:51:15;1.93;;;1.83;;
15848;SDS011;8024;48.708;9.394;2023-04-03T03:53:42;3.13;;;2.10;;
15848;SDS011;8024;48.708;9.394;2023-04-03T03:56:09;3.13;;;2.20;;
15848;SDS011;8024;48.708;9.394;2023-04-03T03:58:36;1.80;;;1.70;;
15848;SDS011;8024;48.708;9.394;2023-04-03T04:01:04;2.53;;;2.33;;
15848;SDS011;8024;48.708;9.394;2023-04-03T04:03:32;2.07;;;1.87;;
15848;SDS011;8024;48.708;9.394;2023-04-03T04:05:59;2.73;;;2.53;;
15848;SDS011;8024;48.708;9.394;2023-04-03T04:08:28;3.23;;;2.13;;
15848;SDS011;8024;48.708;9.394;2023-04-03T04:10:55;2.53;;;2.33;;
15848;SDS011;8024;48.708;9.394;2023-04-03T04:13:22;3.90;;;2.40;;
15848;SDS011;8024;48.708;9.394;2023-04-03T04:15:49;2.30;;;2.10;;
15848;SDS011;8024;48.708;9.394;2023-04-03T04:18:16;2.03;;;1.93;;
15848;SDS011;8024;48.708;9.394;2023-04-03T04:20:45;4.13;;;2.23;;
15848;SDS011;8024;48.708;9.394;2023-04-03T04:23:12;2.83;;;2.10;;
15848;SDS011;8024;48.708;9.394;2023-04-03T04:25:40;2.47;;;2.37;;
15848;SDS011;8024;48.708;9.394;2023-04-03T04:28:10;3.37;;;2.33;;
15848;SDS011;8024;48.708;9.394;2023-04-03T04:30:37;2.93;;;2.57;;
15848;SDS011;8024;48.708;9.394;2023-04-03T04:33:04;2.23;;;2.00;;
15848;SDS011;8024;48.708;9.394;2023-04-03T04:35:31;2.77;;;2.50;;
15848;SDS011;8024;48.708;9.394;2023-04-03T04:37:59;2.60;;;2.23;;
15848;SDS011;8024;48.708;9.394;2023-04-03T04:40:26;2.40;;;2.20;;
15848;SDS011;8024;48.708;9.394;2023-04-03T04:42:55;2.07;;;1.97;;
15848;SDS011;8024;48.708;9.394;2023-04-03T04:45:22;4.23;;;2.27;;
15848;SDS011;8024;48.708;9.394;2023-04-03T04:47:49;2.43;;;2.13;;
15848;SDS011;8024;48.708;9.394;2023-04-03T04:50:17;1.70;;;1.60;;
15848;SDS011;8024;48.708;9.394;2023-04-03T04:52:45;2.13;;;1.97;;
15848;SDS011;8024;48.708;9.394;2023-04-03T04:55:12;2.23;;;2.00;;
15848;SDS011;8024;48.708;9.394;2023-04-03T04:57:39;3.13;;;1.83;;
15848;SDS011;8024;48.708;9.394;2023-04-03T05:00:08;2.13;;;2.03;;
15848;SDS011;8024;48.708;9.394;2023-04-03T05:02:37;2.00;;;1.90;;
15848;SDS011;8024;48.708;9.394;2023-04-03T05:05:04;3.03;;;2.10;;
15848;SDS011;8024;48.708;9.394;2023-04-03T05:07:31;3.43;;;2.00;;
15848;SDS011;8024;48.708;9.394;2023-04-03T05:10:00;2.47;;;2.10;;
15848;SDS011;8024;48.708;9.394;2023-04-03T05:12:28;2.10;;;1.97;;
15848;SDS011;8024;48.708;9.394;2023-04-03T05:14:55;4.03;;;2.00;;
15848;SDS011;8024;48.708;9.394;2023-04-03T05:17:24;2.27;;;1.87;;
15848;SDS011;8024;48.708;9.394;2023-04-03T05:19:51;2.60;;;1.83;;
15848;SDS011;8024;48.708;9.394;2023-04-03T05:22:18;3.00;;;1.80;;
15848;SDS011;8024;48.708;9.394;2023-04-03T05:24:45;2.30;;;1.60;;
15848;SDS011;8024;48.708;9.394;2023-04-03T05:27:12;3.30;;;1.67;;
15848;SDS011;8024;48.708;9.394;2023-04-03T05:29:39;2.20;;;2.00;;
15848;SDS011;8024;48.708;9.394;2023-04-03T05:32:08;2.57;;;1.63;;
15848;SDS011;8024;48.708;9.394;2023-04-03T05:34:37;3.10;;;2.00;;
15848;SDS011;8024;48.708;9.394;2023-04-03T05:37:04;2.10;;;1.80;;
15848;SDS011;8024;48.708;9.394;2023-04-03T05:39:31;2.60;;;2.00;;
15848;SDS011;8024;48.708;9.394;2023-04-03T05:41:58;1.90;;;1.80;;
15848;SDS011;8024;48.708;9.394;2023-04-03T05:44:25;2.20;;;2.10;;
15848;SDS011;8024;48.708;9.394;2023-04-03T05:46:53;1.70;;;1.70;;
15848;SDS011;8024;48.708;9.394;2023-04-03T05:49:20;1.90;;;1.80;;
15848;SDS011;8024;48.708;9.394;2023-04-03T05:51:48;2.00;;;1.90;;
15848;SDS011;8024;48.708;9.394;2023-04-03T05:54:17;2.30;;;1.90;;
15848;SDS011;8024;48.708;9.394;2023-04-03T05:56:47;2.43;;;1.87;;
15848;SDS011;8024;48.708;9.394;2023-04-03T05:59:15;2.60;;;1.80;;
15848;SDS011;8024;48.708;9.394;2023-04-03T06:01:42;1.80;;;1.70;;
15848;SDS011;8024;48.708;9.394;2023-04-03T06:04:10;1.70;;;1.50;;
15848;SDS011;8024;48.708;9.394;2023-04-03T06:06:45;2.27;;;1.60;;
15848;SDS011;8024;48.708;9.394;2023-04-03T06:09:15;2.60;;;1.50;;
15848;SDS011;8024;48.708;9.394;2023-04-03T06:11:43;1.93;;;1.83;;
15848;SDS011;8024;48.708;9.394;2023-04-03T06:14:11;2.17;;;1.90;;
15848;SDS011;8024;48.708;9.394;2023-04-03T06:16:38;1.93;;;1.80;;
15848;SDS011;8024;48.708;9.394;2023-04-03T06:19:06;1.73;;;1.63;;
15848;SDS011;8024;48.708;9.394;2023-04-03T06:21:34;2.90;;;2.20;;
15848;SDS011;8024;48.708;9.394;2023-04-03T06:24:01;1.87;;;1.77;;
15848;SDS011;8024;48.708;9.394;2023-04-03T06:26:30;2.80;;;2.30;;
15848;SDS011;8024;48.708;9.394;2023-04-03T06:28:58;2.97;;;1.50;;
15848;SDS011;8024;48.708;9.394;2023-04-03T06:31:25;1.90;;;1.80;;
15848;SDS011;8024;48.708;9.394;2023-04-03T06:33:53;2.50;;;1.80;;
15848;SDS011;8024;48.708;9.394;2023-04-03T06:36:20;2.03;;;1.83;;
15848;SDS011;8024;48.708;9.394;2023-04-03T06:38:47;2.00;;;1.90;;
15848;SDS011;8024;48.708;9.394;2023-04-03T06:44:10;2.53;;;2.33;;
15848;SDS011;8024;48.708;9.394;2023-04-03T06:46:40;2.10;;;1.53;;
15848;SDS011;8024;48.708;9.394;2023-04-03T06:49:08;1.30;;;1.17;;
15848;SDS011;8024;48.708;9.394;2023-04-03T06:51:35;3.63;;;2.20;;
15848;SDS011;8024;48.708;9.394;2023-04-03T06:54:03;1.40;;;1.30;;
15848;SDS011;8024;48.708;9.394;2023-04-03T06:56:32;1.90;;;1.77;;
15848;SDS011;8024;48.708;9.394;2023-04-03T06:59:01;1.40;;;1.23;;
15848;SDS011;8024;48.708;9.394;2023-04-03T07:01:28;1.70;;;1.60;;
15848;SDS011;8024;48.708;9.394;2023-04-03T07:03:56;2.40;;;2.20;;
15848;SDS011;8024;48.708;9.394;2023-04-03T07:06:23;1.80;;;1.70;;
15848;SDS011;8024;48.708;9.394;2023-04-03T07:08:52;1.87;;;1.60;;
15848;SDS011;8024;48.708;9.394;2023-04-03T07:11:20;2.13;;;2.00;;
15848;SDS011;8024;48.708;9.394;2023-04-03T07:13:47;4.20;;;1.90;;
15848;SDS011;8024;48.708;9.394;2023-04-03T07:16:16;1.70;;;1.60;;
15848;SDS011;8024;48.708;9.394;2023-04-03T07:18:43;1.70;;;1.60;;
15848;SDS011;8024;48.708;9.394;2023-04-03T07:21:10;1.47;;;1.40;;
15848;SDS011;8024;48.708;9.394;2023-04-03T07:23:38;1.67;;;1.57;;
15848;SDS011;8024;48.708;9.394;2023-04-03T07:26:05;1.83;;;1.73;;
15848;SDS011;8024;48.708;9.394;2023-04-03T07:28:33;3.93;;;1.97;;
15848;SDS011;8024;48.708;9.394;2023-04-03T07:31:02;2.00;;;1.90;;
15848;SDS011;8024;48.708;9.394;2023-04-03T07:33:34;3.13;;;2.17;;
15848;SDS011;8024;48.708;9.394;2023-04-03T07:36:02;4.63;;;2.00;;
15848;SDS011;8024;48.708;9.394;2023-04-03T07:38:32;3.30;;;2.60;;
15848;SDS011;8024;48.708;9.394;2023-04-03T07:41:00;4.17;;;1.93;;
15848;SDS011;8024;48.708;9.394;2023-04-03T07:43:27;2.87;;;1.70;;
15848;SDS011;8024;48.708;9.394;2023-04-03T07:45:55;3.10;;;2.10;;
15848;SDS011;8024;48.708;9.394;2023-04-03T07:48:23;2.47;;;2.00;;
15848;SDS011;8024;48.708;9.394;2023-04-03T07:50:53;2.60;;;2.37;;
15848;SDS011;8024;48.708;9.394;2023-04-03T07:53:24;2.03;;;1.93;;
15848;SDS011;8024;48.708;9.394;2023-04-03T07:55:51;1.83;;;1.70;;
15848;SDS011;8024;48.708;9.394;2023-04-03T07:58:20;1.90;;;1.80;;
15848;SDS011;8024;48.708;9.394;2023-04-03T08:00:48;2.30;;;1.50;;
15848;SDS011;8024;48.708;9.394;2023-04-03T08:03:15;1.90;;;1.80;;
15848;SDS011;8024;48.708;9.394;2023-04-03T08:05:43;2.00;;;1.67;;
15848;SDS011;8024;48.708;9.394;2023-04-03T08:08:12;3.30;;;1.90;;
15848;SDS011;8024;48.708;9.394;2023-04-03T08:10:41;1.53;;;1.40;;
15848;SDS011;8024;48.708;9.394;2023-04-03T08:13:09;3.23;;;2.07;;
15848;SDS011;8024;48.708;9.394;2023-04-03T08:15:37;2.67;;;1.70;;
15848;SDS011;8024;48.708;9.394;2023-04-03T08:18:04;5.00;;;2.30;;
15848;SDS011;8024;48.708;9.394;2023-04-03T08:20:31;2.80;;;2.17;;
15848;SDS011;8024;48.708;9.394;2023-04-03T08:22:59;4.33;;;2.10;;
15848;SDS011;8024;48.708;9.394;2023-04-03T08:25:27;1.97;;;1.80;;
15848;SDS011;8024;48.708;9.394;2023-04-03T08:27:54;2.40;;;2.20;;
15848;SDS011;8024;48.708;9.394;2023-04-03T08:30:22;3.23;;;2.00;;
15848;SDS011;8024;48.708;9.394;2023-04-03T08:32:49;4.00;;;1.90;;
15848;SDS011;8024;48.708;9.394;2023-04-03T08:35:16;3.17;;;2.07;;
15848;SDS011;8024;48.708;9.394;2023-04-03T08:37:45;2.47;;;2.03;;
15848;SDS011;8024;48.708;9.394;2023-04-03T08:40:13;2.23;;;1.80;;
15848;SDS011;8024;48.708;9.394;2023-04-03T08:42:44;1.60;;;1.50;;
15848;SDS011;8024;48.708;9.394;2023-04-03T08:45:19;2.83;;;1.80;;
15848;SDS011;8024;48.708;9.394;2023-04-03T08:47:53;3.07;;;2.00;;
15848;SDS011;8024;48.708;9.394;2023-04-03T08:50:29;1.87;;;1.77;;
15848;SDS011;8024;48.708;9.394;2023-04-03T08:52:59;3.23;;;2.13;;
15848;SDS011;8024;48.708;9.394;2023-04-03T08:55:31;2.00;;;1.80;;
15848;SDS011;8024;48.708;9.394;2023-04-03T08:58:02;2.03;;;1.90;;
15848;SDS011;8024;48.708;9.394;2023-04-03T09:00:32;2.47;;;2.27;;
15848;SDS011;8024;48.708;9.394;2023-04-03T09:03:10;3.77;;;1.70;;
15848;SDS011;8024;48.708;9.394;2023-04-03T09:05:39;2.00;;;1.87;;
15848;SDS011;8024;48.708;9.394;2023-04-03T09:08:12;3.33;;;1.87;;
15848;SDS011;8024;48.708;9.394;2023-04-03T09:10:47;1.70;;;1.60;;
15848;SDS011;8024;48.708;9.394;2023-04-03T09:13:21;3.67;;;1.90;;
15848;SDS011;8024;48.708;9.394;2023-04-03T09:15:55;2.30;;;1.97;;
15848;SDS011;8024;48.708;9.394;2023-04-03T09:18:23;2.17;;;1.70;;
15848;SDS011;8024;48.708;9.394;2023-04-03T09:20:58;2.87;;;1.60;;
15848;SDS011;8024;48.708;9.394;2023-04-03T09:23:36;2.17;;;1.73;;
15848;SDS011;8024;48.708;9.394;2023-04-03T09:26:09;2.10;;;1.50;;
15848;SDS011;8024;48.708;9.394;2023-04-03T09:28:43;1.73;;;1.63;;
15848;SDS011;8024;48.708;9.394;2023-04-03T09:31:14;1.63;;;1.53;;
15848;SDS011;8024;48.708;9.394;2023-04-03T09:33:45;3.33;;;1.80;;
15848;SDS011;8024;48.708;9.394;2023-04-03T09:36:13;2.70;;;1.73;;
15848;SDS011;8024;48.708;9.394;2023-04-03T09:39:03;3.43;;;1.77;;
15848;SDS011;8024;48.708;9.394;2023-04-03T09:41:31;2.50;;;2.00;;
15848;SDS011;8024;48.708;9.394;2023-04-03T09:43:59;2.60;;;2.00;;
15848;SDS011;8024;48.708;9.394;2023-04-03T09:46:31;1.50;;;1.50;;
15848;SDS011;8024;48.708;9.394;2023-04-03T09:49:00;1.10;;;1.10;;
15848;SDS011;8024;48.708;9.394;2023-04-03T09:51:29;1.60;;;1.50;;
15848;SDS011;8024;48.708;9.394;2023-04-03T09:53:57;1.20;;;1.10;;
15848;SDS011;8024;48.708;9.394;2023-04-03T09:56:34;1.67;;;1.20;;
15848;SDS011;8024;48.708;9.394;2023-04-03T09:59:12;1.20;;;1.00;;
15848;SDS011;8024;48.708;9.394;2023-04-03T10:01:42;1.93;;;1.10;;
15848;SDS011;8024;48.708;9.394;2023-04-03T10:04:22;1.17;;;1.07;;
15848;SDS011;8024;48.708;9.394;2023-04-03T10:06:50;1.47;;;1.37;;
15848;SDS011;8024;48.708;9.394;2023-04-03T10:09:20;1.90;;;1.13;;
15848;SDS011;8024;48.708;9.394;2023-04-03T10:12:00;1.10;;;1.00;;
15848;SDS011;8024;48.708;9.394;2023-04-03T10:14:32;1.47;;;1.10;;
15848;SDS011;8024;48.708;9.394;2023-04-03T10:17:02;1.97;;;1.10;;
15848;SDS011;8024;48.708;9.394;2023-04-03T10:19:43;2.60;;;1.40;;
15848;SDS011;8024;48.708;9.394;2023-04-03T10:22:16;1.10;;;1.00;;
15848;SDS011;8024;48.708;9.394;2023-04-03T10:24:57;1.20;;;1.10;;
15848;SDS011;8024;48.708;9.394;2023-04-03T10:27:33;1.13;;;1.03;;
15848;SDS011;8024;48.708;9.394;2023-04-03T10:30:13;1.60;;;1.50;;
15848;SDS011;8024;48.708;9.394;2023-04-03T10:32:51;1.27;;;1.10;;
15848;SDS011;8024;48.708;9.394;2023-04-03T10:35:32;1.57;;;1.47;;
15848;SDS011;8024;48.708;9.394;2023-04-03T10:38:07;3.43;;;1.50;;
15848;SDS011;8024;48.708;9.394;2023-04-03T10:40:44;1.33;;;1.23;;
15848;SDS011;8024;48.708;9.394;2023-04-03T10:43:21;1.50;;;1.40;;
15848;SDS011;8024;48.708;9.394;2023-04-03T10:45:58;8.80;;;1.97;;
15848;SDS011;8024;48.708;9.394;2023-04-03T10:48:33;4.43;;;1.40;;
15848;SDS011;8024;48.708;9.394;2023-04-03T10:51:11;1.87;;;1.23;;
15848;SDS011;8024;48.708;9.394;2023-04-03T10:53:48;2.23;;;1.47;;
15848;SDS011;8024;48.708;9.394;2023-04-03T10:56:21;1.63;;;1.40;;
15848;SDS011;8024;48.708;9.394;2023-04-03T10:58:57;2.93;;;1.50;;
15848;SDS011;8024;48.708;9.394;2023-04-03T11:01:30;1.83;;;1.73;;
15848;SDS011;8024;48.708;9.394;2023-04-03T11:04:00;1.37;;;1.33;;
15848;SDS011;8024;48.708;9.394;2023-04-03T11:06:31;2.17;;;1.47;;
15848;SDS011;8024;48.708;9.394;2023-04-03T11:09:03;2.07;;;1.87;;
15848;SDS011;8024;48.708;9.394;2023-04-03T11:11:35;2.27;;;1.27;;
15848;SDS011;8024;48.708;9.394;2023-04-03T11:14:05;1.20;;;0.93;;
15848;SDS011;8024;48.708;9.394;2023-04-03T11:16:42;1.30;;;1.20;;
15848;SDS011;8024;48.708;9.394;2023-04-03T11:19:14;1.10;;;1.00;;
15848;SDS011;8024;48.708;9.394;2023-04-03T11:21:47;2.50;;;1.13;;
15848;SDS011;8024;48.708;9.394;2023-04-03T11:24:20;1.23;;;1.13;;
15848;SDS011;8024;48.708;9.394;2023-04-03T11:26:50;1.47;;;1.00;;
15848;SDS011;8024;48.708;9.394;2023-04-03T11:29:20;1.17;;;1.07;;
15848;SDS011;8024;48.708;9.394;2023-04-03T11:31:58;2.53;;;1.27;;
15848;SDS011;8024;48.708;9.394;2023-04-03T11:34:36;1.23;;;1.00;;
15848;SDS011;8024;48.708;9.394;2023-04-03T11:37:11;1.03;;;0.93;;
15848;SDS011;8024;48.708;9.394;2023-04-03T11:39:47;1.30;;;0.90;;
15848;SDS011;8024;48.708;9.394;2023-04-03T11:42:23;1.33;;;1.27;;
15848;SDS011;8024;48.708;9.394;2023-04-03T11:47:45;2.63;;;1.10;;
15848;SDS011;8024;48.708;9.394;2023-04-03T11:53:30;0.90;;;0.87;;
15848;SDS011;8024;48.708;9.394;2023-04-03T11:56:03;1.47;;;0.97;;
15848;SDS011;8024;48.708;9.394;2023-04-03T11:58:52;0.97;;;0.90;;
15848;SDS011;8024;48.708;9.394;2023-04-03T12:01:47;1.60;;;1.07;;
15848;SDS011;8024;48.708;9.394;2023-04-03T12:04:17;1.27;;;1.10;;
15848;SDS011;8024;48.708;9.394;2023-04-03T12:09:57;3.77;;;1.70;;
15848;SDS011;8024;48.708;9.394;2023-04-03T12:12:33;1.50;;;1.30;;
15848;SDS011;8024;48.708;9.394;2023-04-03T12:17:51;1.40;;;1.23;;
15848;SDS011;8024;48.708;9.394;2023-04-03T12:23:27;1.17;;;0.90;;
15848;SDS011;8024;48.708;9.394;2023-04-03T12:26:00;2.03;;;1.00;;
15848;SDS011;8024;48.708;9.394;2023-04-03T12:28:38;1.27;;;0.80;;
15848;SDS011;8024;48.708;9.394;2023-04-03T12:31:08;0.87;;;0.87;;
15848;SDS011;8024;48.708;9.394;2023-04-03T12:33:40;1.10;;;1.00;;
15848;SDS011;8024;48.708;9.394;2023-04-03T12:36:28;1.47;;;0.93;;
15848;SDS011;8024;48.708;9.394;2023-04-03T12:39:09;2.40;;;1.67;;
15848;SDS011;8024;48.708;9.394;2023-04-03T12:41:45;3.90;;;1.23;;
15848;SDS011;8024;48.708;9.394;2023-04-03T12:44:29;2.13;;;1.30;;
15848;SDS011;8024;48.708;9.394;2023-04-03T12:47:07;1.07;;;0.97;;
15848;SDS011;8024;48.708;9.394;2023-04-03T12:49:53;1.20;;;1.07;;
15848;SDS011;8024;48.708;9.394;2023-04-03T12:52:26;1.33;;;1.10;;
15848;SDS011;8024;48.708;9.394;2023-04-03T12:55:00;1.10;;;1.00;;
15848;SDS011;8024;48.708;9.394;2023-04-03T12:57:29;1.27;;;1.00;;
15848;SDS011;8024;48.708;9.394;2023-04-03T12:59:57;1.23;;;0.90;;
15848;SDS011;8024;48.708;9.394;2023-04-03T13:02:26;2.00;;;1.03;;
15848;SDS011;8024;48.708;9.394;2023-04-03T13:04:55;1.67;;;1.00;;
15848;SDS011;8024;48.708;9.394;2023-04-03T13:07:26;1.27;;;1.20;;
15848;SDS011;8024;48.708;9.394;2023-04-03T13:09:59;1.10;;;0.93;;
15848;SDS011;8024;48.708;9.394;2023-04-03T13:12:28;0.70;;;0.70;;
15848;SDS011;8024;48.708;9.394;2023-04-03T13:14:57;1.10;;;1.00;;
15848;SDS011;8024;48.708;9.394;2023-04-03T13:17:26;1.33;;;1.20;;
15848;SDS011;8024;48.708;9.394;2023-04-03T13:19:53;1.33;;;1.20;;
15848;SDS011;8024;48.708;9.394;2023-04-03T13:22:27;0.80;;;0.80;;
15848;SDS011;8024;48.708;9.394;2023-04-03T13:24:59;2.27;;;1.00;;
15848;SDS011;8024;48.708;9.394;2023-04-03T13:27:31;1.33;;;1.13;;
15848;SDS011;8024;48.708;9.394;2023-04-03T13:29:59;1.93;;;1.03;;
15848;SDS011;8024;48.708;9.394;2023-04-03T13:32:28;0.90;;;0.90;;
15848;SDS011;8024;48.708;9.394;2023-04-03T13:34:56;1.63;;;1.53;;
15848;SDS011;8024;48.708;9.394;2023-04-03T13:37:25;0.93;;;0.90;;
15848;SDS011;8024;48.708;9.394;2023-04-03T13:39:57;1.27;;;1.00;;
15848;SDS011;8024;48.708;9.394;2023-04-03T13:42:30;1.60;;;1.50;;
15848;SDS011;8024;48.708;9.394;2023-04-03T13:45:09;1.53;;;1.10;;
15848;SDS011;8024;48.708;9.394;2023-04-03T13:47:43;1.40;;;1.30;;
15848;SDS011;8024;48.708;9.394;2023-04-03T13:50:13;1.53;;;1.43;;
15848;SDS011;8024;48.708;9.394;2023-04-03T13:52:45;2.47;;;1.33;;
15848;SDS011;8024;48.708;9.394;2023-04-03T13:55:16;1.67;;;1.10;;
15848;SDS011;8024;48.708;9.394;2023-04-03T13:57:51;1.30;;;1.20;;
15848;SDS011;8024;48.708;9.394;2023-04-03T14:00:26;3.77;;;1.27;;
15848;SDS011;8024;48.708;9.394;2023-04-03T14:02:57;4.00;;;1.27;;
15848;SDS011;8024;48.708;9.394;2023-04-03T14:05:24;1.80;;;1.03;;
15848;SDS011;8024;48.708;9.394;2023-04-03T14:07:53;1.63;;;1.53;;
15848;SDS011;8024;48.708;9.394;2023-04-03T14:10:22;1.80;;;1.07;;
15848;SDS011;8024;48.708;9.394;2023-04-03T14:12:49;2.67;;;1.20;;
15848;SDS011;8024;48.708;9.394;2023-04-03T14:15:18;1.40;;;1.30;;
15848;SDS011;8024;48.708;9.394;2023-04-03T14:17:48;1.97;;;1.33;;
15848;SDS011;8024;48.708;9.394;2023-04-03T14:20:18;1.47;;;1.07;;
15848;SDS011;8024;48.708;9.394;2023-04-03T14:22:46;1.30;;;1.20;;
15848;SDS011;8024;48.708;9.394;2023-04-03T14:25:16;1.53;;;1.17;;
15848;SDS011;8024;48.708;9.394;2023-04-03T14:27:44;1.30;;;1.20;;
15848;SDS011;8024;48.708;9.394;2023-04-03T14:30:15;0.93;;;0.93;;
15848;SDS011;8024;48.708;9.394;2023-04-03T14:32:44;1.87;;;0.90;;
15848;SDS011;8024;48.708;9.394;2023-04-03T14:35:12;0.80;;;0.67;;
15848;SDS011;8024;48.708;9.394;2023-04-03T14:37:39;1.50;;;1.00;;
15848;SDS011;8024;48.708;9.394;2023-04-03T14:40:07;0.97;;;0.97;;
15848;SDS011;8024;48.708;9.394;2023-04-03T14:42:39;1.17;;;0.90;;
15848;SDS011;8024;48.708;9.394;2023-04-03T14:45:07;4.60;;;1.10;;
15848;SDS011;8024;48.708;9.394;2023-04-03T14:47:37;1.67;;;1.20;;
15848;SDS011;8024;48.708;9.394;2023-04-03T14:50:11;1.40;;;1.27;;
15848;SDS011;8024;48.708;9.394;2023-04-03T14:52:42;1.43;;;1.23;;
15848;SDS011;8024;48.708;9.394;2023-04-03T14:55:12;1.47;;;1.37;;
15848;SDS011;8024;48.708;9.394;2023-04-03T14:57:42;1.20;;;1.10;;
15848;SDS011;8024;48.708;9.394;2023-04-03T15:00:12;1.63;;;1.43;;
15848;SDS011;8024;48.708;9.394;2023-04-03T15:02:41;0.93;;;0.90;;
15848;SDS011;8024;48.708;9.394;2023-04-03T15:05:09;1.57;;;1.07;;
15848;SDS011;8024;48.708;9.394;2023-04-03T15:07:38;1.23;;;1.00;;
15848;SDS011;8024;48.708;9.394;2023-04-03T15:10:14;1.40;;;0.90;;
15848;SDS011;8024;48.708;9.394;2023-04-03T15:12:44;1.30;;;1.20;;
15848;SDS011;8024;48.708;9.394;2023-04-03T15:15:12;1.40;;;1.00;;
15848;SDS011;8024;48.708;9.394;2023-04-03T15:17:39;1.20;;;1.20;;
15848;SDS011;8024;48.708;9.394;2023-04-03T15:20:10;1.80;;;1.13;;
15848;SDS011;8024;48.708;9.394;2023-04-03T15:22:39;1.20;;;1.13;;
15848;SDS011;8024;48.708;9.394;2023-04-03T15:25:07;1.10;;;1.00;;
15848;SDS011;8024;48.708;9.394;2023-04-03T15:27:34;2.33;;;1.80;;
15848;SDS011;8024;48.708;9.394;2023-04-03T15:30:04;2.43;;;1.37;;
15848;SDS011;8024;48.708;9.394;2023-04-03T15:32:32;2.17;;;1.20;;
15848;SDS011;8024;48.708;9.394;2023-04-03T15:35:00;1.23;;;0.87;;
15848;SDS011;8024;48.708;9.394;2023-04-03T15:37:27;3.00;;;1.63;;
15848;SDS011;8024;48.708;9.394;2023-04-03T15:39:55;1.90;;;1.23;;